Time;durP1;ratioP1;P1;durP2;ratioP2;P2;SDS_P1;SDS_P2;PMS_P1;PMS_P2;Temp;Humidity;BMP_temperature;BMP_pressure;BME280_temperature;BME280_humidity;BME280_pressure;Samples;Min_cycle;Max_cycle;Signal;HPM_P1;HPM_P2
2023/09/22 00:04:32;;;;;;;2.15;1.95;;;;;;;17.90;100.00;153193.56;10463545;28;20060;-71
2023/09/22 00:09:34;;;;;;;2.53;2.20;;;;;;;17.96;99.70;153207.81;10445535;28;20088;-71
2023/09/22 00:14:36;;;;;;;2.15;1.95;;;;;;;17.79;100.00;153166.28;10463322;28;20089;-72
2023/09/22 00:19:38;;;;;;;2.05;1.90;;;;;;;17.86;100.00;153183.19;10446319;28;20037;-72
2023/09/22 00:24:39;;;;;;;2.45;2.08;;;;;;;17.82;100.00;153172.78;10462268;28;20124;-71
2023/09/22 00:29:42;;;;;;;2.50;1.70;;;;;;;18.07;99.23;153237.69;10463606;28;20033;-71
2023/09/22 00:34:43;;;;;;;2.60;2.35;;;;;;;18.13;98.28;153251.97;10462103;28;20045;-71
2023/09/22 00:39:45;;;;;;;1.83;1.73;;;;;;;17.98;100.00;153213.03;10443228;28;20045;-71
2023/09/22 00:44:48;;;;;;;2.03;1.88;;;;;;;17.93;100.00;153200.03;10461354;28;20041;-71
2023/09/22 00:49:50;;;;;;;1.90;1.70;;;;;;;17.87;100.00;153185.75;10462072;28;20087;-71
2023/09/22 00:54:56;;;;;;;2.95;2.33;;;;;;;17.80;100.00;153167.63;10461735;28;20045;-71
2023/09/22 00:59:58;;;;;;;3.03;2.03;;;;;;;18.02;100.00;153224.72;10443180;28;20520;-71
2023/09/22 01:05:00;;;;;;;2.33;2.13;;;;;;;17.85;100.00;153181.88;10460620;28;20045;-71
2023/09/22 01:10:09;;;;;;;2.05;1.95;;;;;;;18.04;100.00;153229.91;10443769;28;20041;-71
2023/09/22 01:15:11;;;;;;;2.35;2.15;;;;;;;17.83;100.00;153175.38;10443356;28;20077;-71
2023/09/22 01:20:13;;;;;;;2.30;2.10;;;;;;;17.83;100.00;153175.38;10460792;28;20060;-71
2023/09/22 01:25:14;;;;;;;2.47;2.28;;;;;;;17.82;100.00;153172.78;10460303;28;20041;-72
2023/09/22 01:30:16;;;;;;;2.78;2.30;;;;;;;17.87;100.00;153187.06;10442136;28;20076;-71
2023/09/22 01:35:18;;;;;;;2.97;1.63;;;;;;;17.58;100.00;153111.75;10460926;28;20051;-72
2023/09/22 01:40:20;;;;;;;1.60;1.50;;;;;;;17.51;100.00;153094.88;10441157;28;20467;-71
2023/09/22 01:45:22;;;;;;;1.02;1.00;;;;;;;17.71;98.16;153144.16;10441175;28;20079;-71
2023/09/22 01:50:23;;;;;;;1.00;0.90;;;;;;;17.88;95.26;153189.69;10458761;28;20048;-70
2023/09/22 01:55:25;;;;;;;1.15;0.90;;;;;;;18.05;92.62;153232.47;10441982;28;20048;-71
2023/09/22 02:00:27;;;;;;;3.38;1.67;;;;;;;18.14;92.63;153254.56;10440758;28;20045;-71
2023/09/22 02:05:30;;;;;;;5.07;1.05;;;;;;;18.10;92.34;153245.44;10458389;28;20106;-71
2023/09/22 02:10:32;;;;;;;0.80;0.80;;;;;;;18.09;92.79;153241.56;10440456;28;20037;-71
2023/09/22 02:15:36;;;;;;;0.93;0.90;;;;;;;18.06;92.62;153235.13;10458365;28;20455;-71
2023/09/22 02:20:40;;;;;;;1.25;0.90;;;;;;;18.10;92.09;153245.44;10441216;28;20040;-71
2023/09/22 02:25:42;;;;;;;0.80;0.80;;;;;;;18.22;89.66;153275.34;10439801;28;20090;-71
2023/09/22 02:30:43;;;;;;;1.30;0.80;;;;;;;18.62;85.60;153376.63;10439987;28;20076;-71
2023/09/22 02:35:47;;;;;;;0.63;0.57;;;;;;;18.66;84.58;153387.00;10457362;28;20056;-71
2023/09/22 02:40:48;;;;;;;1.17;0.50;;;;;;;18.59;84.38;153368.81;10439825;28;20099;-71
2023/09/22 02:45:53;;;;;;;1.42;0.70;;;;;;;18.71;82.67;153398.75;10438951;28;20118;-71
2023/09/22 02:50:55;;;;;;;0.40;0.40;;;;;;;18.92;79.67;153453.31;10439372;28;20093;-71
2023/09/22 02:56:03;;;;;;;0.40;0.40;;;;;;;18.85;80.01;153436.38;10457165;28;20061;-71
2023/09/22 03:01:08;;;;;;;0.20;0.20;;;;;;;19.05;76.79;153487.06;10458965;28;20079;-71
2023/09/22 03:06:11;;;;;;;0.20;0.20;;;;;;;18.90;77.17;153448.06;10439787;28;20413;-71
2023/09/22 03:11:13;;;;;;;0.40;0.30;;;;;;;18.80;77.29;153423.41;10457585;28;20377;-72
2023/09/22 03:16:15;;;;;;;0.00;0.00;;;;;;;18.70;76.53;153396.16;10439627;28;20583;-72
2023/09/22 03:21:22;;;;;;;0.00;0.00;;;;;;;18.58;76.68;153366.22;10439888;28;20106;-71
2023/09/22 03:26:24;;;;;;;0.00;0.00;;;;;;;18.66;76.10;153387.00;10440696;28;20132;-72
2023/09/22 03:31:26;;;;;;;0.00;0.00;;;;;;;18.61;76.23;153375.31;10458458;28;20044;-71
2023/09/22 03:36:30;;;;;;;0.00;0.00;;;;;;;18.78;75.22;153418.22;10458422;28;20087;-70
2023/09/22 03:41:35;;;;;;;0.00;0.00;;;;;;;18.36;77.75;153311.69;10440082;28;20045;-72
2023/09/22 03:46:37;;;;;;;0.00;0.00;;;;;;;18.14;79.07;153255.84;10458057;28;20053;-72
2023/09/22 03:51:39;;;;;;;0.13;0.00;;;;;;;18.19;79.39;153266.25;10422487;28;20559;-72
2023/09/22 03:56:41;;;;;;;0.10;0.00;;;;;;;18.33;77.04;153302.63;10438175;28;20041;-71
2023/09/22 04:01:44;;;;;;;0.10;0.00;;;;;;;18.45;75.76;153333.75;10437761;28;20571;-71
2023/09/22 04:06:46;;;;;;;0.00;0.00;;;;;;;18.08;78.84;153240.28;10439205;28;20074;-71
2023/09/22 04:11:49;;;;;;;0.10;0.10;;;;;;;18.13;78.29;153251.97;10438803;28;20049;-71
2023/09/22 04:16:51;;;;;;;0.28;0.13;;;;;;;18.11;78.63;153246.81;10463151;28;20120;-71
2023/09/22 04:21:54;;;;;;;0.10;0.10;;;;;;;18.48;75.78;153341.56;10463311;28;20036;-71
2023/09/22 04:27:00;;;;;;;0.00;0.00;;;;;;;18.44;75.88;153329.88;10462811;28;20045;-72
2023/09/22 04:32:02;;;;;;;;;;;;;;;18.25;77.23;153281.84;10464544;28;20124;-71
2023/09/22 04:37:04;;;;;;;0.10;0.10;;;;;;;18.23;77.11;153277.91;10462645;28;19960;-72
2023/09/22 04:42:07;;;;;;;0.10;0.00;;;;;;;18.35;76.05;153307.78;10462913;28;20041;-71
2023/09/22 04:47:08;;;;;;;0.08;0.05;;;;;;;17.96;81.83;153209.13;10462446;28;20055;-72
2023/09/22 04:52:10;;;;;;;0.45;0.00;;;;;;;17.59;87.06;153115.63;10444947;28;20064;-72
2023/09/22 04:57:12;;;;;;;0.10;0.10;;;;;;;17.76;83.66;153158.53;10461903;28;20123;-72
2023/09/22 05:02:14;;;;;;;0.20;0.10;;;;;;;17.58;84.70;153111.75;10461154;28;20119;-71
2023/09/22 05:07:16;;;;;;;2.85;0.13;;;;;;;17.33;87.23;153048.16;10461163;28;20060;-72
2023/09/22 05:12:18;;;;;;;0.17;0.10;;;;;;;17.25;87.69;153028.69;10462961;28;20041;-72
2023/09/22 05:17:19;;;;;;;0.40;0.10;;;;;;;17.42;85.56;153071.50;10461187;28;20041;-72
2023/09/22 05:22:22;;;;;;;0.28;0.10;;;;;;;17.21;88.86;153017.00;10460695;28;20041;-72
2023/09/22 05:27:24;;;;;;;0.28;0.15;;;;;;;17.23;89.15;153023.53;10460208;28;20423;-72
2023/09/22 05:32:27;;;;;;;0.10;0.10;;;;;;;17.37;86.70;153059.84;10460578;28;20048;-71
2023/09/22 05:37:31;;;;;;;0.10;0.10;;;;;;;17.11;90.03;152993.66;10460985;28;20512;-72
2023/09/22 05:42:33;;;;;;;0.10;0.10;;;;;;;16.95;90.79;152950.84;10459679;28;20059;-70
2023/09/22 05:47:35;;;;;;;0.10;0.10;;;;;;;17.30;89.11;153040.38;10460433;28;20119;-72
2023/09/22 05:52:38;;;;;;;0.17;0.10;;;;;;;17.50;86.90;153092.28;10459623;28;20040;-71
2023/09/22 05:57:43;;;;;;;0.45;0.20;;;;;;;17.32;88.58;153045.56;10461601;28;20063;-72
2023/09/22 06:02:52;;;;;;;0.30;0.30;;;;;;;17.38;88.55;153061.13;10442089;28;20037;-72
2023/09/22 06:07:54;;;;;;;0.10;0.10;;;;;;;17.35;91.23;153053.31;10459760;28;20071;-71
2023/09/22 06:12:57;;;;;;;0.20;0.20;;;;;;;17.18;94.84;153009.22;10451980;28;20052;-70
2023/09/22 06:17:58;;;;;;;0.20;0.10;;;;;;;16.97;97.88;152956.06;10460154;28;20048;-70
2023/09/22 06:23:00;;;;;;;0.20;0.20;;;;;;;16.79;100.00;152911.94;10458129;28;20045;-71
2023/09/22 06:28:05;;;;;;;0.30;0.20;;;;;;;16.82;100.00;152919.75;10459184;28;20051;-70
2023/09/22 06:33:07;;;;;;;0.20;0.20;;;;;;;17.13;99.17;152998.88;10464017;28;20468;-71
2023/09/22 06:38:13;;;;;;;0.32;0.22;;;;;;;16.85;100.00;152927.50;10447476;28;20044;-71
2023/09/22 06:43:15;;;;;;;0.45;0.45;;;;;;;16.99;100.00;152962.50;10440634;28;20041;-71
2023/09/22 06:48:29;;;;;;;0.47;0.30;;;;;;;16.95;100.00;152950.84;10457729;28;20049;-71
2023/09/22 06:53:34;;;;;;;0.30;0.30;;;;;;;16.99;100.00;152961.22;10440427;28;20045;-70
2023/09/22 06:58:37;;;;;;;0.73;0.47;;;;;;;17.03;98.96;152972.91;10457010;28;20052;-71
2023/09/22 07:03:40;;;;;;;0.43;0.30;;;;;;;17.13;97.48;152997.53;10459113;28;20037;-71
2023/09/22 07:08:45;;;;;;;0.20;0.20;;;;;;;16.94;98.72;152949.56;10457431;28;20412;-70
2023/09/22 07:13:47;;;;;;;0.20;0.20;;;;;;;17.06;97.15;152980.69;10457380;28;20382;-71
2023/09/22 07:18:49;;;;;;;0.85;0.20;;;;;;;17.09;97.22;152987.19;10457661;28;20120;-71
2023/09/22 07:23:51;;;;;;;0.68;0.30;;;;;;;17.06;99.11;152980.69;10458360;28;20064;-71
2023/09/22 07:28:53;;;;;;;0.20;0.20;;;;;;;17.11;100.00;152993.66;10456482;28;20049;-70
2023/09/22 07:33:54;;;;;;;0.70;0.50;;;;;;;17.18;98.68;153009.22;10459802;28;20059;-70
2023/09/22 07:38:56;;;;;;;0.80;0.20;;;;;;;17.33;95.78;153048.16;10456126;28;20473;-70
2023/09/22 07:43:58;;;;;;;0.20;0.20;;;;;;;17.46;93.69;153081.91;10448849;28;20049;-70
2023/09/22 07:49:00;;;;;;;0.30;0.10;;;;;;;17.43;94.96;153074.09;10461652;28;20076;-68
2023/09/22 07:54:02;;;;;;;1.05;0.38;;;;;;;17.57;92.92;153109.13;10426150;28;20133;-69
2023/09/22 07:59:04;;;;;;;0.32;0.30;;;;;;;17.60;92.28;153116.94;10441783;28;20044;-69
2023/09/22 08:04:15;;;;;;;0.10;0.10;;;;;;;17.49;92.99;153088.41;10465137;28;20049;-70
2023/09/22 08:09:16;;;;;;;0.30;0.20;;;;;;;17.72;92.53;153148.09;10441500;28;20048;-69
2023/09/22 08:14:21;;;;;;;0.20;0.15;;;;;;;17.77;91.12;153159.81;10427256;28;20119;-69
2023/09/22 08:19:23;;;;;;;1.17;0.35;;;;;;;17.76;92.18;153158.53;10446058;28;20044;-69
2023/09/22 08:24:25;;;;;;;0.47;0.30;;;;;;;17.79;91.50;153164.97;10462801;28;20389;-69
2023/09/22 08:29:27;;;;;;;0.20;0.20;;;;;;;17.75;91.33;153155.94;10463776;28;20048;-69
2023/09/22 08:34:29;;;;;;;0.20;0.20;;;;;;;17.82;91.14;153172.78;10462656;28;20055;-68
2023/09/22 08:39:31;;;;;;;0.32;0.20;;;;;;;17.75;93.30;153154.59;10462306;28;20040;-70
2023/09/22 08:44:33;;;;;;;0.90;0.30;;;;;;;17.80;93.18;153168.91;10460546;28;20037;-69
2023/09/22 08:49:35;;;;;;;0.52;0.20;;;;;;;17.95;91.40;153205.25;10461976;28;20041;-69
2023/09/22 08:54:37;;;;;;;0.32;0.25;;;;;;;18.12;88.25;153249.38;10462425;28;20068;-69
2023/09/22 08:59:42;;;;;;;0.40;0.30;;;;;;;18.16;88.50;153259.78;10460491;28;20037;-69
2023/09/22 09:04:44;;;;;;;0.20;0.20;;;;;;;18.06;88.77;153235.13;10461768;28;20037;-69
2023/09/22 09:09:49;;;;;;;0.43;0.35;;;;;;;17.94;90.72;153203.94;10462337;28;20037;-69
2023/09/22 09:14:57;;;;;;;1.10;0.30;;;;;;;17.93;95.66;153201.38;10463331;28;20072;-69
2023/09/22 09:20:05;;;;;;;0.45;0.20;;;;;;;17.83;94.98;153175.38;10462795;28;20120;-69
2023/09/22 09:25:09;;;;;;;0.47;0.38;;;;;;;17.83;94.99;153176.66;10443448;28;20041;-69
2023/09/22 09:30:13;;;;;;;0.77;0.30;;;;;;;17.79;97.11;153164.97;10461255;28;20116;-69
2023/09/22 09:35:28;;;;;;;0.40;0.40;;;;;;;17.93;98.71;153200.03;10462674;28;20096;-69
2023/09/22 09:40:51;;;;;;;0.60;0.40;;;;;;;18.19;95.63;153266.25;10447623;28;20041;-69
2023/09/22 09:45:57;;;;;;;0.40;0.30;;;;;;;18.13;99.20;153251.97;10461241;28;20049;-69
2023/09/22 09:51:00;;;;;;;1.30;0.30;;;;;;;18.27;94.92;153288.31;10460877;28;20106;-69
2023/09/22 09:56:03;;;;;;;0.40;0.30;;;;;;;18.47;98.73;153338.97;10460315;28;20045;-69
2023/09/22 10:01:06;;;;;;;0.45;0.30;;;;;;;18.44;93.09;153331.16;10459508;28;20041;-69
2023/09/22 10:06:12;;;;;;;1.30;0.30;;;;;;;18.30;98.37;153294.81;10459565;28;20124;-69
2023/09/22 10:11:14;;;;;;;0.70;0.30;;;;;;;18.39;100.00;153318.19;10460338;28;20378;-69
2023/09/22 10:16:29;;;;;;;0.28;0.20;;;;;;;18.49;95.22;153342.84;10458616;28;20041;-69
2023/09/22 10:21:34;;;;;;;0.30;0.30;;;;;;;18.38;90.27;153316.91;10460110;28;20048;-69
2023/09/22 10:26:36;;;;;;;0.10;0.10;;;;;;;18.39;90.20;153318.19;10460723;28;20124;-70
2023/09/22 10:32:21;;;;;;;0.28;0.22;;;;;;;18.30;89.10;153294.81;10460508;28;20045;-70
2023/09/22 10:37:26;;;;;;;0.30;0.30;;;;;;;18.12;82.09;153250.69;10460754;28;20065;-70
2023/09/22 10:42:33;;;;;;;0.30;0.30;;;;;;;18.00;86.77;153219.50;10460252;28;20104;-70
2023/09/22 10:47:40;;;;;;;0.40;0.30;;;;;;;18.00;89.82;153219.50;10459142;28;20045;-70
2023/09/22 10:53:03;;;;;;;0.20;0.20;;;;;;;18.03;84.46;153226.03;10458261;28;20487;-71
2023/09/22 10:58:09;;;;;;;0.25;0.22;;;;;;;18.06;83.57;153235.13;10479391;28;20048;-71
2023/09/22 11:03:13;;;;;;;0.13;0.13;;;;;;;17.79;84.06;153164.97;10500009;28;20044;-70
2023/09/22 11:08:18;;;;;;;0.60;0.32;;;;;;;17.55;83.98;153103.97;10499656;28;20075;-70
2023/09/22 11:13:23;;;;;;;0.32;0.30;;;;;;;17.38;83.19;153062.41;10481069;28;20040;-70
2023/09/22 11:18:32;;;;;;;0.45;0.30;;;;;;;17.47;80.74;153084.47;10499647;28;20041;-71
2023/09/22 11:23:40;;;;;;;0.30;0.30;;;;;;;17.40;80.96;153066.34;10504943;28;20041;-70
2023/09/22 11:28:45;;;;;;;0.20;0.20;;;;;;;17.17;88.02;153006.63;10491489;28;20044;-70
2023/09/22 11:34:04;;;;;;;0.28;0.22;;;;;;;17.09;84.63;152988.50;10508313;28;20122;-70
2023/09/22 11:39:08;;;;;;;0.77;0.30;;;;;;;17.18;87.69;153010.56;10490744;28;20037;-70
2023/09/22 11:44:13;;;;;;;0.20;0.20;;;;;;;17.12;83.38;152996.25;10508069;28;20045;-70
2023/09/22 11:49:15;;;;;;;0.50;0.30;;;;;;;16.97;83.83;152957.34;10509580;28;20045;-70
2023/09/22 11:54:23;;;;;;;0.68;0.40;;;;;;;16.93;81.45;152946.97;10508647;28;20413;-70
2023/09/22 11:59:34;;;;;;;0.28;0.22;;;;;;;16.85;85.77;152926.22;10509411;28;20040;-71
2023/09/22 12:04:42;;;;;;;0.30;0.30;;;;;;;16.70;95.24;152888.56;10505612;28;20094;-69
2023/09/22 12:09:44;;;;;;;0.47;0.28;;;;;;;16.77;90.98;152906.75;10489834;28;20086;-69
2023/09/22 12:14:45;;;;;;;0.63;0.40;;;;;;;16.69;94.17;152884.63;10480088;28;20451;-69
2023/09/22 12:19:48;;;;;;;0.85;0.20;;;;;;;16.51;92.31;152839.25;10487504;28;20074;-69
2023/09/22 12:24:50;;;;;;;0.35;0.30;;;;;;;16.67;91.78;152879.47;10481340;28;20052;-70
2023/09/22 12:29:52;;;;;;;0.80;0.28;;;;;;;16.49;100.00;152834.09;10466138;28;20041;-69
2023/09/22 12:34:54;;;;;;;0.43;0.30;;;;;;;16.34;98.05;152796.50;10499322;28;20044;-69
2023/09/22 12:39:56;;;;;;;0.30;0.30;;;;;;;16.48;99.78;152832.78;10502114;28;20457;-70
2023/09/22 12:44:58;;;;;;;0.47;0.30;;;;;;;16.64;100.00;152874.31;10463084;28;20045;-70
2023/09/22 12:50:04;;;;;;;0.77;0.22;;;;;;;16.69;100.00;152885.97;10462910;28;20036;-69
2023/09/22 12:55:06;;;;;;;1.58;1.48;;;;;;;17.10;88.32;152991.06;10463985;28;20040;-69
2023/09/22 13:00:11;;;;;;;0.30;0.20;;;;;;;17.12;93.14;152996.25;10462350;28;20462;-69
2023/09/22 13:05:13;;;;;;;1.98;0.70;;;;;;;17.09;93.15;152987.19;10462109;28;20044;-70
2023/09/22 13:10:15;;;;;;;0.98;0.50;;;;;;;16.95;89.03;152950.84;10462522;28;20083;-70
2023/09/22 13:15:18;;;;;;;0.82;0.45;;;;;;;16.93;90.55;152945.69;10463591;28;20052;-70
2023/09/22 13:20:20;;;;;;;0.25;0.22;;;;;;;16.87;89.07;152932.72;10462662;28;20477;-70
2023/09/22 13:25:22;;;;;;;0.50;0.30;;;;;;;16.96;85.63;152953.47;10461089;28;20049;-70
2023/09/22 13:30:24;;;;;;;0.30;0.20;;;;;;;17.05;87.84;152976.81;10461223;28;20087;-71
2023/09/22 13:35:26;;;;;;;0.50;0.43;;;;;;;17.17;87.18;153007.91;10463012;28;20041;-70
2023/09/22 13:40:32;;;;;;;0.52;0.17;;;;;;;17.24;82.86;153024.81;10462181;28;20041;-71
2023/09/22 13:45:36;;;;;;;;;;;;;;;17.33;84.65;153049.44;10460564;28;20067;-71
2023/09/22 13:50:39;;;;;;;0.75;0.40;;;;;;;17.75;76.67;153155.94;10442880;28;19929;-71
2023/09/22 13:55:41;;;;;;;0.70;0.17;;;;;;;17.78;77.70;153162.41;10461404;28;20040;-70
2023/09/22 14:00:43;;;;;;;0.52;0.20;;;;;;;17.53;83.59;153098.75;10462660;28;20037;-71
2023/09/22 14:05:45;;;;;;;0.22;0.22;;;;;;;17.65;82.86;153131.19;10441638;28;20087;-69
2023/09/22 14:10:47;;;;;;;0.22;0.20;;;;;;;17.67;76.67;153133.81;10482794;28;20048;-70
2023/09/22 14:15:48;;;;;;;0.57;0.30;;;;;;;17.68;80.39;153137.69;10472613;28;20071;-70
2023/09/22 14:20:51;;;;;;;0.40;0.30;;;;;;;17.62;77.31;153123.44;10502795;28;20068;-70
2023/09/22 14:25:53;;;;;;;0.77;0.20;;;;;;;17.78;81.19;153162.41;10474075;28;20455;-71
2023/09/22 14:30:55;;;;;;;0.30;0.20;;;;;;;18.16;72.51;153259.78;10458384;28;20455;-69
2023/09/22 14:36:07;;;;;;;0.30;0.30;;;;;;;18.24;71.49;153279.22;10458913;28;20068;-70
2023/09/22 14:41:09;;;;;;;0.10;0.10;;;;;;;18.22;74.23;153275.34;10452676;28;20135;-70
2023/09/22 14:46:17;;;;;;;0.30;0.15;;;;;;;18.02;70.24;153224.72;10499282;28;20123;-70
2023/09/22 14:51:20;;;;;;;0.32;0.15;;;;;;;18.20;72.34;153270.16;10499330;28;20115;-70
2023/09/22 14:56:22;;;;;;;0.32;0.17;;;;;;;17.93;70.73;153200.03;10481058;28;20146;-69
2023/09/22 15:01:24;;;;;;;0.30;0.20;;;;;;;18.09;69.99;153241.56;10467407;28;20106;-69
2023/09/22 15:06:25;;;;;;;0.30;0.20;;;;;;;18.08;68.44;153239.00;10458690;28;20127;-69
2023/09/22 15:11:27;;;;;;;0.40;0.17;;;;;;;17.77;72.29;153159.81;10457065;28;20037;-70
2023/09/22 15:16:32;;;;;;;1.25;0.77;;;;;;;17.98;67.78;153214.34;10457065;28;20103;-70
2023/09/22 15:21:35;;;;;;;0.40;0.30;;;;;;;17.97;70.08;153211.69;10439153;28;20068;-71
2023/09/22 15:26:37;;;;;;;0.30;0.20;;;;;;;18.16;68.43;153259.78;10444893;28;20080;-70
2023/09/22 15:31:40;;;;;;;0.25;0.20;;;;;;;18.13;66.09;153251.97;10474593;28;20056;-70
2023/09/22 15:36:43;;;;;;;0.28;0.20;;;;;;;17.79;72.51;153166.28;10456869;28;20044;-71
2023/09/22 15:41:44;;;;;;;0.73;0.68;;;;;;;17.98;69.39;153214.34;10456939;28;20524;-71
2023/09/22 15:46:46;;;;;;;0.82;0.20;;;;;;;17.88;70.66;153189.69;10499797;28;20045;-71
2023/09/22 15:51:48;;;;;;;0.45;0.38;;;;;;;17.63;73.60;153126.03;10499749;28;20044;-71
2023/09/22 15:56:50;;;;;;;0.40;0.35;;;;;;;17.59;72.03;153115.63;10498210;28;20041;-71
2023/09/22 16:01:52;;;;;;;0.30;0.20;;;;;;;17.58;72.51;153111.75;10472407;28;20048;-71
2023/09/22 16:06:54;;;;;;;0.50;0.40;;;;;;;17.43;73.83;153072.81;10456141;28;20045;-71
2023/09/22 16:11:56;;;;;;;0.70;0.45;;;;;;;17.16;76.49;153005.34;10465260;28;20045;-71
2023/09/22 16:16:58;;;;;;;0.45;0.20;;;;;;;17.04;78.41;152974.19;10445516;28;20112;-70
2023/09/22 16:22:02;;;;;;;2.80;2.35;;;;;;;17.23;76.13;153023.53;10463359;28;20427;-71
2023/09/22 16:27:04;;;;;;;1.77;1.67;;;;;;;17.22;78.81;153020.94;10463349;28;20091;-71
2023/09/22 16:32:06;;;;;;;2.85;2.65;;;;;;;17.32;76.20;153046.88;10464016;28;20378;-71
2023/09/22 16:37:08;;;;;;;1.40;1.30;;;;;;;17.26;78.42;153031.28;10463204;28;20055;-71
2023/09/22 16:42:10;;;;;;;0.93;0.60;;;;;;;17.07;79.18;152983.28;10463027;28;20091;-71
2023/09/22 16:47:12;;;;;;;0.73;0.68;;;;;;;16.98;79.64;152958.66;10462255;28;20612;-71
2023/09/22 16:52:14;;;;;;;0.68;0.57;;;;;;;16.86;81.25;152930.09;10462247;28;20037;-71
2023/09/22 16:57:16;;;;;;;0.40;0.40;;;;;;;16.77;82.31;152906.75;10463055;28;20048;-71
2023/09/22 17:02:18;;;;;;;0.60;0.60;;;;;;;17.06;80.02;152979.41;10444179;28;20216;-71
2023/09/22 17:07:20;;;;;;;0.68;0.68;;;;;;;16.94;83.01;152949.56;10461779;28;20051;-71
2023/09/22 17:12:22;;;;;;;0.90;0.60;;;;;;;17.00;81.98;152965.16;10461913;28;20385;-71
2023/09/22 17:17:24;;;;;;;3.47;3.17;;;;;;;16.79;84.47;152911.94;10462312;28;20075;-70
2023/09/22 17:22:27;;;;;;;1.17;0.90;;;;;;;16.97;82.87;152956.06;10442554;28;20049;-71
2023/09/22 17:27:29;;;;;;;1.38;0.60;;;;;;;16.98;81.97;152958.66;10460917;28;20433;-71
2023/09/22 17:32:31;;;;;;;0.70;0.60;;;;;;;16.65;84.54;152875.59;10444082;28;20048;-71
2023/09/22 17:37:35;;;;;;;1.33;0.63;;;;;;;16.45;88.73;152825.00;10463167;28;20051;-70
2023/09/22 17:42:37;;;;;;;1.52;0.90;;;;;;;16.32;89.74;152791.28;10461191;28;20515;-71
2023/09/22 17:47:39;;;;;;;1.20;0.60;;;;;;;16.30;89.65;152786.13;10462112;28;20139;-72
2023/09/22 17:52:41;;;;;;;0.98;0.68;;;;;;;16.48;88.34;152831.50;10461313;28;20041;-71
2023/09/22 17:57:43;;;;;;;0.60;0.55;;;;;;;16.43;88.81;152818.53;10461408;28;20099;-70
2023/09/22 18:02:46;;;;;;;0.57;0.50;;;;;;;16.52;86.47;152841.88;10462538;28;20028;-71
2023/09/22 18:07:48;;;;;;;0.98;0.50;;;;;;;16.22;89.26;152766.66;10460192;28;20566;-70
2023/09/22 18:12:50;;;;;;;0.57;0.50;;;;;;;16.32;89.52;152791.28;10459905;28;20051;-70
2023/09/22 18:17:56;;;;;;;1.55;0.70;;;;;;;16.42;86.98;152815.91;10461246;28;20091;-71
2023/09/22 18:22:58;;;;;;;1.00;0.70;;;;;;;16.29;87.77;152783.50;10461004;28;20101;-71
2023/09/22 18:28:00;;;;;;;7.60;6.90;;;;;;;16.32;87.82;152792.56;10442089;28;20566;-71
2023/09/22 18:33:03;;;;;;;3.15;2.85;;;;;;;16.11;89.62;152738.13;10461041;28;20041;-71
2023/09/22 18:38:05;;;;;;;0.95;0.80;;;;;;;16.04;91.13;152721.28;10460246;28;20045;-71
2023/09/22 18:43:06;;;;;;;1.15;0.93;;;;;;;16.14;89.54;152745.91;10443423;28;20120;-70
2023/09/22 18:48:09;;;;;;;2.00;1.40;;;;;;;16.22;89.82;152765.38;10460745;28;20048;-71
2023/09/22 18:53:11;;;;;;;3.15;2.85;;;;;;;16.11;90.48;152738.13;10459920;28;20033;-71
2023/09/22 18:58:17;;;;;;;1.17;1.00;;;;;;;15.98;91.23;152704.41;10459706;28;20041;-71
2023/09/22 19:03:19;;;;;;;2.03;1.25;;;;;;;15.67;95.43;152625.34;10460798;28;20068;-70
2023/09/22 19:08:22;;;;;;;1.27;0.98;;;;;;;15.53;97.12;152590.31;10459997;28;20045;-70
2023/09/22 19:13:23;;;;;;;1.38;0.95;;;;;;;15.58;96.95;152604.59;10442293;28;20060;-70
2023/09/22 19:18:25;;;;;;;1.20;0.90;;;;;;;15.76;94.92;152650.00;10459773;28;20413;-71
2023/09/22 19:23:27;;;;;;;2.13;1.90;;;;;;;16.09;92.18;152734.25;10460282;28;20041;-71
2023/09/22 19:28:30;;;;;;;2.17;1.50;;;;;;;15.86;94.64;152674.63;10459328;28;20049;-71
2023/09/22 19:33:32;;;;;;;0.95;0.80;;;;;;;15.75;95.76;152646.09;10458592;28;20123;-71
2023/09/22 19:38:34;;;;;;;0.70;0.68;;;;;;;15.62;98.37;152613.63;10459357;28;20044;-70
2023/09/22 19:43:37;;;;;;;1.10;0.98;;;;;;;15.52;99.35;152587.75;10461847;28;20197;-71
2023/09/22 19:48:39;;;;;;;0.93;0.88;;;;;;;15.48;100.00;152577.38;10468454;28;20065;-70
2023/09/22 19:53:41;;;;;;;1.02;0.85;;;;;;;15.60;99.20;152608.47;10466704;28;20045;-71
2023/09/22 19:58:46;;;;;;;1.00;0.80;;;;;;;15.47;100.00;152574.78;10468528;28;20049;-71
2023/09/22 20:03:49;;;;;;;1.17;0.90;;;;;;;15.29;100.00;152530.72;10467535;28;20070;-70
2023/09/22 20:08:52;;;;;;;1.27;0.80;;;;;;;15.26;100.00;152521.66;10448560;28;20087;-70
2023/09/22 20:13:55;;;;;;;0.75;0.65;;;;;;;15.56;100.00;152599.41;10465657;28;20118;-71
2023/09/22 20:19:00;;;;;;;1.00;0.60;;;;;;;15.42;100.00;152561.84;10465157;28;20052;-71
2023/09/22 20:24:01;;;;;;;2.63;1.00;;;;;;;15.26;100.00;152521.66;10449332;28;20068;-70
2023/09/22 20:29:03;;;;;;;1.98;0.90;;;;;;;15.18;100.00;152502.19;10465231;28;20040;-71
2023/09/22 20:34:07;;;;;;;1.52;1.00;;;;;;;15.18;100.00;152500.91;10447264;28;20060;-71
2023/09/22 20:39:10;;;;;;;1.27;0.88;;;;;;;15.31;100.00;152535.88;10465248;28;20043;-70
2023/09/22 20:44:11;;;;;;;1.00;0.80;;;;;;;15.41;97.79;152560.53;10448040;28;20052;-71
2023/09/22 20:49:15;;;;;;;1.83;0.73;;;;;;;15.46;95.48;152572.22;10464278;28;20045;-70
2023/09/22 20:54:17;;;;;;;0.77;0.60;;;;;;;15.45;94.87;152569.56;10462028;28;20072;-72
2023/09/22 20:59:19;;;;;;;1.17;0.70;;;;;;;15.41;94.07;152559.25;10464085;28;20045;-71
2023/09/22 21:04:21;;;;;;;0.88;0.70;;;;;;;15.34;94.25;152542.38;10463073;28;20047;-71
2023/09/22 21:09:23;;;;;;;0.60;0.60;;;;;;;15.42;94.01;152561.84;10464501;28;20575;-70
2023/09/22 21:14:25;;;;;;;1.17;0.73;;;;;;;15.46;92.88;152573.50;10446205;28;20041;-69
2023/09/22 21:19:26;;;;;;;0.75;0.50;;;;;;;15.50;91.33;152583.88;10446381;28;20049;-69
2023/09/22 21:24:29;;;;;;;0.93;0.80;;;;;;;15.34;92.08;152542.38;10465656;28;20047;-70
2023/09/22 21:29:30;;;;;;;1.30;0.80;;;;;;;15.37;91.14;152550.19;10461886;28;20060;-69
2023/09/22 21:34:34;;;;;;;1.77;0.75;;;;;;;15.26;91.14;152521.66;10462886;28;20084;-70
2023/09/22 21:39:36;;;;;;;0.75;0.70;;;;;;;15.25;90.60;152520.34;10465664;28;20037;-70
2023/09/22 21:44:38;;;;;;;0.80;0.70;;;;;;;14.99;92.64;152453.00;10462651;28;20037;-70
2023/09/22 21:49:41;;;;;;;0.93;0.43;;;;;;;14.81;94.09;152407.66;10465281;28;20551;-71
2023/09/22 21:54:49;;;;;;;0.75;0.43;;;;;;;14.71;95.00;152383.06;10431571;28;20041;-71
2023/09/22 21:59:51;;;;;;;0.40;0.40;;;;;;;14.69;95.76;152376.56;10445997;28;20564;-72
2023/09/22 22:04:56;;;;;;;1.35;0.60;;;;;;;14.95;95.24;152442.63;10464379;28;20067;-71
2023/09/22 22:10:02;;;;;;;0.93;0.60;;;;;;;14.69;97.43;152377.84;10460124;28;20040;-71
2023/09/22 22:15:04;;;;;;;1.27;0.77;;;;;;;14.62;99.59;152359.75;10460621;28;20103;-70
2023/09/22 22:20:15;;;;;;;1.10;0.68;;;;;;;14.53;100.00;152337.72;10459473;28;20279;-70
2023/09/22 22:25:19;;;;;;;1.17;0.80;;;;;;;14.74;100.00;152389.50;10460496;28;20077;-70
2023/09/22 22:30:21;;;;;;;0.80;0.60;;;;;;;14.58;100.00;152350.69;10458497;28;20045;-70
2023/09/22 22:35:24;;;;;;;1.27;1.00;;;;;;;14.43;100.00;152311.75;10441083;28;20129;-70
2023/09/22 22:40:26;;;;;;;1.02;0.73;;;;;;;14.38;100.00;152298.81;10458115;28;20409;-70
2023/09/22 22:45:29;;;;;;;1.45;0.93;;;;;;;14.32;100.00;152283.28;10424350;28;20091;-71
2023/09/22 22:50:31;;;;;;;1.05;0.90;;;;;;;14.42;100.00;152309.19;10461426;28;20076;-71
2023/09/22 22:55:34;;;;;;;1.40;0.85;;;;;;;14.41;100.00;152306.59;10440985;28;20460;-71
2023/09/22 23:00:39;;;;;;;1.10;1.00;;;;;;;14.44;100.00;152314.38;10440916;28;20052;-70
2023/09/22 23:05:41;;;;;;;1.27;1.17;;;;;;;14.66;100.00;152368.84;10459402;28;20112;-72
2023/09/22 23:10:43;;;;;;;1.73;1.10;;;;;;;14.61;100.00;152358.47;10460072;28;20045;-71
2023/09/22 23:16:05;;;;;;;1.20;1.10;;;;;;;14.69;100.00;152377.84;10458574;28;20044;-70